createdAt,value
2022-12-23T00:01:41.707Z,91.91
2022-12-23T00:04:10.523Z,91.65
2022-12-23T00:06:40.246Z,91.42
2022-12-23T00:09:08.855Z,91.43
2022-12-23T00:12:00.033Z,91.71
2022-12-23T00:14:47.134Z,91.69
2022-12-23T00:17:22.696Z,91.62
2022-12-23T00:19:52.859Z,91.77
2022-12-23T00:22:44.554Z,91.93
2022-12-23T00:25:14.212Z,91.97
2022-12-23T00:27:42.536Z,91.86
2022-12-23T00:30:12.324Z,92.08
2022-12-23T00:32:42.029Z,91.91
2022-12-23T00:35:10.667Z,91.93
2022-12-23T00:37:40.363Z,92.20
2022-12-23T00:40:30.588Z,92.45
2022-12-23T00:42:59.092Z,92.77
2022-12-23T00:45:27.626Z,92.85
2022-12-23T00:48:13.533Z,92.72
2022-12-23T00:50:42.009Z,92.81
2022-12-23T00:53:11.744Z,92.94
2022-12-23T00:55:40.924Z,92.94
2022-12-23T00:58:09.221Z,92.83
2022-12-23T01:00:54.996Z,93.05
2022-12-23T01:03:40.650Z,92.86
2022-12-23T01:06:09.171Z,93.01
2022-12-23T01:08:40.379Z,93.43
2022-12-23T01:11:11.821Z,92.86
2022-12-23T01:13:40.688Z,92.89
2022-12-23T01:16:16.853Z,92.52
2022-12-23T01:18:46.206Z,92.79
2022-12-23T01:21:15.011Z,92.49
2022-12-23T01:23:44.880Z,92.56
2022-12-23T01:26:13.758Z,92.57
2022-12-23T01:28:42.087Z,92.87
2022-12-23T01:31:11.787Z,92.78
2022-12-23T01:33:40.244Z,92.59
2022-12-23T01:36:09.918Z,92.40
2022-12-23T01:38:38.296Z,92.47
2022-12-23T01:41:09.014Z,92.58
2022-12-23T01:43:46.557Z,92.28
2022-12-23T01:46:16.140Z,92.35
2022-12-23T01:48:50.338Z,92.24
2022-12-23T01:51:25.030Z,92.61
2022-12-23T01:53:57.010Z,92.55
2022-12-23T01:56:31.560Z,92.34
2022-12-23T01:59:03.880Z,92.66
2022-12-23T02:01:50.128Z,92.72
2022-12-23T02:04:21.967Z,92.53
2022-12-23T02:07:09.507Z,92.50
2022-12-23T02:09:40.402Z,92.61
2022-12-23T02:12:43.219Z,92.40
2022-12-23T02:15:39.612Z,92.51
2022-12-23T02:18:30.350Z,92.50
2022-12-23T02:21:41.368Z,92.88
2022-12-23T02:24:34.847Z,93.13
2022-12-23T02:27:27.231Z,93.08
2022-12-23T02:30:40.357Z,93.29
2022-12-23T02:33:32.317Z,93.38
2022-12-23T02:36:18.185Z,93.21
2022-12-23T02:38:54.360Z,93.63
2022-12-23T02:41:28.629Z,93.50
2022-12-23T02:44:01.490Z,93.38
2022-12-23T02:46:34.904Z,93.04
2022-12-23T02:49:09.166Z,92.97
2022-12-23T02:51:44.160Z,92.67
2022-12-23T02:54:17.308Z,93.21
2022-12-23T02:56:50.455Z,92.79
2022-12-23T02:59:21.756Z,92.56
2022-12-23T03:01:53.265Z,92.98
2022-12-23T03:04:21.932Z,92.98
2022-12-23T03:06:55.296Z,93.29
2022-12-23T03:09:31.624Z,93.25
2022-12-23T03:12:12.742Z,93.15
2022-12-23T03:14:59.558Z,93.24
2022-12-23T03:17:48.604Z,93.04
2022-12-23T03:20:25.129Z,93.23
2022-12-23T03:23:02.425Z,93.14
2022-12-23T03:25:36.701Z,93.44
2022-12-23T03:28:10.725Z,93.51
2022-12-23T03:30:44.887Z,93.38
2022-12-23T03:33:18.558Z,93.50
2022-12-23T03:35:53.035Z,93.73
2022-12-23T03:38:24.706Z,94.30
2022-12-23T03:40:56.292Z,94.49
2022-12-23T03:43:29.417Z,94.34
2022-12-23T03:46:05.704Z,94.24
2022-12-23T03:48:37.634Z,94.29
2022-12-23T03:51:12.639Z,93.85
2022-12-23T03:53:46.248Z,94.18
2022-12-23T03:56:21.137Z,94.15
2022-12-23T03:58:56.441Z,94.63
2022-12-23T04:01:32.809Z,94.60
2022-12-23T04:04:05.418Z,94.92
2022-12-23T04:06:40.710Z,94.49
2022-12-23T04:09:12.674Z,94.59
2022-12-23T04:11:42.797Z,94.59
2022-12-23T04:14:11.899Z,94.47
2022-12-23T04:16:40.514Z,94.75
2022-12-23T04:19:08.955Z,94.50
2022-12-23T04:21:37.692Z,94.60
2022-12-23T04:24:07.085Z,94.52
2022-12-23T04:26:36.933Z,94.35
2022-12-23T04:29:05.410Z,94.21
2022-12-23T04:31:34.441Z,94.32
2022-12-23T04:34:03.638Z,93.85
2022-12-23T04:36:31.961Z,93.83
2022-12-23T04:39:00.272Z,93.83
2022-12-23T04:41:28.900Z,93.80
2022-12-23T04:43:58.635Z,93.65
2022-12-23T04:46:27.047Z,93.73
2022-12-23T04:48:56.468Z,93.64
2022-12-23T04:51:24.984Z,93.42
2022-12-23T04:53:53.416Z,93.23
2022-12-23T04:56:21.719Z,93.14
2022-12-23T04:58:50.072Z,93.45
2022-12-23T05:01:19.985Z,92.93
2022-12-23T05:03:48.280Z,93.25
2022-12-23T05:06:17.736Z,93.07
2022-12-23T05:08:46.397Z,93.30
2022-12-23T05:11:15.027Z,93.71
2022-12-23T05:13:43.428Z,93.88
2022-12-23T05:16:12.263Z,93.56
2022-12-23T05:18:42.374Z,93.42
2022-12-23T05:21:11.610Z,93.56
2022-12-23T05:23:40.597Z,93.37
2022-12-23T05:26:09.487Z,93.40
2022-12-23T05:28:37.861Z,93.28
2022-12-23T05:31:08.467Z,93.41
2022-12-23T05:33:37.430Z,93.13
2022-12-23T05:36:08.087Z,93.12
2022-12-23T05:38:36.545Z,93.08
2022-12-23T05:41:05.312Z,93.10
2022-12-23T05:43:34.300Z,93.12
2022-12-23T05:46:02.648Z,93.37
2022-12-23T05:48:31.107Z,93.45
2022-12-23T05:50:59.737Z,93.42
2022-12-23T05:53:29.495Z,93.71
2022-12-23T05:55:57.849Z,94.04
2022-12-23T05:58:28.197Z,93.71
2022-12-23T06:00:56.800Z,93.79
2022-12-23T06:03:25.312Z,93.76
2022-12-23T06:05:56.807Z,93.42
2022-12-23T06:08:25.347Z,93.46
2022-12-23T06:10:55.553Z,93.68
2022-12-23T06:13:24.244Z,93.78
2022-12-23T06:15:52.566Z,93.72
2022-12-23T06:18:20.893Z,93.42
2022-12-23T06:20:49.672Z,93.05
2022-12-23T06:23:18.393Z,93.20
2022-12-23T06:25:47.004Z,93.37
2022-12-23T06:28:18.066Z,93.14
2022-12-23T06:30:46.421Z,92.82
2022-12-23T06:33:14.760Z,92.89
2022-12-23T06:35:45.121Z,92.98
2022-12-23T06:38:13.884Z,92.83
2022-12-23T06:40:42.450Z,92.99
2022-12-23T06:43:13.759Z,92.92
2022-12-23T06:45:48.260Z,93.02
2022-12-23T06:48:17.318Z,92.77
2022-12-23T06:50:46.475Z,92.59
2022-12-23T06:53:15.616Z,92.65
2022-12-23T06:55:44.073Z,92.34
2022-12-23T06:58:12.367Z,92.50
2022-12-23T07:00:41.011Z,92.07
2022-12-23T07:03:11.406Z,91.98
2022-12-23T07:05:41.253Z,92.00
2022-12-23T07:08:09.911Z,91.74
2022-12-23T07:10:38.296Z,91.58
2022-12-23T07:13:07.157Z,91.58
2022-12-23T07:15:35.465Z,91.44
2022-12-23T07:18:03.829Z,91.50
2022-12-23T07:20:33.589Z,91.45
2022-12-23T07:23:01.926Z,91.36
2022-12-23T07:25:30.251Z,91.39
2022-12-23T07:27:58.648Z,91.32
2022-12-23T07:30:27.033Z,91.51
2022-12-23T07:32:55.405Z,91.18
2022-12-23T07:35:23.741Z,91.00
2022-12-23T07:37:55.666Z,91.27
2022-12-23T07:40:24.311Z,91.07
2022-12-23T07:42:56.950Z,91.17
2022-12-23T07:45:25.470Z,91.06
2022-12-23T07:47:54.789Z,91.02
2022-12-23T07:50:23.843Z,90.96
2022-12-23T07:52:54.181Z,90.65
2022-12-23T07:55:23.307Z,91.05
2022-12-23T07:57:53.014Z,90.80
2022-12-23T08:00:22.160Z,90.54
2022-12-23T08:02:50.642Z,90.56
2022-12-23T08:05:19.554Z,90.53
2022-12-23T08:07:50.085Z,90.60
2022-12-23T08:10:20.342Z,90.61
2022-12-23T08:12:48.764Z,90.34
2022-12-23T08:15:17.171Z,90.51
2022-12-23T08:17:45.517Z,90.02
2022-12-23T08:20:14.044Z,90.09
2022-12-23T08:22:42.335Z,90.43
2022-12-23T08:25:10.924Z,90.10
2022-12-23T08:27:40.584Z,90.01
2022-12-23T08:30:10.229Z,89.97
2022-12-23T08:32:38.547Z,90.03
2022-12-23T08:35:08.108Z,89.94
2022-12-23T08:37:37.435Z,89.87
2022-12-23T08:40:06.505Z,89.81
2022-12-23T08:42:34.817Z,89.61
2022-12-23T08:45:04.697Z,89.64
2022-12-23T08:47:34.291Z,89.74
2022-12-23T08:50:02.704Z,89.54
2022-12-23T08:52:30.987Z,89.49
2022-12-23T08:54:59.336Z,89.30
2022-12-23T08:57:28.037Z,89.30
2022-12-23T08:59:56.311Z,89.14
2022-12-23T09:02:26.174Z,89.08
2022-12-23T09:04:54.632Z,88.63
2022-12-23T09:07:23.037Z,88.83
2022-12-23T09:09:51.756Z,88.82
2022-12-23T09:12:21.985Z,88.55
2022-12-23T09:14:50.518Z,88.53
2022-12-23T09:17:19.055Z,88.65
2022-12-23T09:19:52.950Z,88.71
2022-12-23T09:22:21.760Z,88.77
2022-12-23T09:24:50.076Z,88.47
2022-12-23T09:27:18.768Z,88.37
2022-12-23T09:29:48.140Z,88.06
2022-12-23T09:32:16.684Z,87.76
2022-12-23T09:34:45.056Z,87.76
2022-12-23T09:37:16.864Z,87.52
2022-12-23T09:39:45.157Z,87.56
2022-12-23T09:42:29.548Z,87.62
2022-12-23T09:45:17.829Z,87.50
2022-12-23T09:47:46.701Z,87.66
2022-12-23T09:50:22.672Z,87.10
2022-12-23T09:53:01.831Z,86.76
2022-12-23T09:55:39.025Z,86.58
2022-12-23T09:58:14.900Z,86.70
2022-12-23T10:00:50.070Z,86.74
2022-12-23T10:03:23.847Z,85.62
2022-12-23T10:06:04.263Z,85.41
2022-12-23T10:08:38.093Z,84.99
2022-12-23T10:11:14.969Z,84.52
2022-12-23T10:13:46.571Z,84.57
2022-12-23T10:16:19.908Z,84.33
2022-12-23T10:18:54.630Z,84.43
2022-12-23T10:21:31.366Z,84.32
2022-12-23T10:24:06.193Z,84.17
2022-12-23T10:26:44.201Z,84.38
2022-12-23T10:29:19.428Z,84.15
2022-12-23T10:32:00.908Z,83.95
2022-12-23T10:34:40.859Z,83.82
2022-12-23T10:37:15.419Z,83.91
2022-12-23T10:39:52.192Z,83.61
2022-12-23T10:42:28.391Z,83.69
2022-12-23T10:45:18.553Z,83.36
2022-12-23T10:47:59.272Z,82.96
2022-12-23T10:50:50.934Z,82.18
2022-12-23T10:53:30.735Z,81.84
2022-12-23T10:56:01.455Z,81.64
2022-12-23T10:58:30.057Z,81.95
2022-12-23T11:01:00.660Z,81.27
2022-12-23T11:03:31.188Z,81.58
2022-12-23T11:06:00.657Z,81.41
2022-12-23T11:08:32.391Z,81.18
2022-12-23T11:11:02.535Z,81.47
2022-12-23T11:13:39.753Z,81.53
2022-12-23T11:16:16.463Z,81.49
2022-12-23T11:18:58.310Z,81.07
2022-12-23T11:21:27.261Z,81.01
2022-12-23T11:24:19.196Z,80.61
2022-12-23T11:26:51.705Z,80.84
2022-12-23T11:29:25.956Z,80.75
2022-12-23T11:31:54.760Z,80.73
2022-12-23T11:34:25.514Z,80.50
2022-12-23T11:37:01.564Z,80.34
2022-12-23T11:39:34.487Z,80.40
2022-12-23T11:42:13.979Z,79.75
2022-12-23T11:44:45.177Z,79.92
2022-12-23T11:47:37.141Z,79.57
2022-12-23T11:50:29.036Z,79.62
2022-12-23T11:53:05.812Z,79.97
2022-12-23T11:55:34.316Z,79.97
2022-12-23T11:58:04.797Z,80.02
2022-12-23T12:00:41.251Z,80.08
2022-12-23T12:03:19.171Z,80.08
2022-12-23T12:05:51.078Z,79.39
2022-12-23T12:08:23.575Z,79.41
2022-12-23T12:10:54.193Z,79.34
2022-12-23T12:13:30.267Z,79.41
2022-12-23T12:16:09.125Z,79.17
2022-12-23T12:18:38.499Z,78.70
2022-12-23T12:21:11.852Z,78.46
2022-12-23T12:23:45.435Z,78.72
2022-12-23T12:26:20.234Z,78.90
2022-12-23T12:28:58.391Z,78.82
2022-12-23T12:31:33.329Z,79.05
2022-12-23T12:34:05.725Z,79.27
2022-12-23T12:36:43.159Z,79.68
2022-12-23T12:39:19.608Z,79.44
2022-12-23T12:41:52.797Z,79.45
2022-12-23T12:44:33.369Z,79.22
2022-12-23T12:47:27.870Z,79.34
2022-12-23T12:50:01.709Z,78.92
2022-12-23T12:52:37.739Z,78.92
2022-12-23T12:55:15.185Z,78.78
2022-12-23T12:57:43.651Z,78.77
2022-12-23T13:00:19.487Z,79.18
2022-12-23T13:03:13.931Z,79.18
2022-12-23T13:06:07.507Z,78.88
2022-12-23T13:08:56.612Z,78.74
2022-12-23T13:11:32.041Z,78.71
2022-12-23T13:14:05.384Z,78.74
2022-12-23T13:16:45.779Z,78.39
2022-12-23T13:19:27.504Z,77.94
2022-12-23T13:22:02.868Z,78.02
2022-12-23T13:24:37.789Z,77.91
2022-12-23T13:27:12.505Z,77.90
2022-12-23T13:29:58.265Z,77.69
2022-12-23T13:32:57.394Z,78.09
2022-12-23T13:35:37.731Z,78.52
2022-12-23T13:38:18.593Z,78.85
2022-12-23T13:40:55.326Z,79.28
2022-12-23T13:43:27.639Z,79.70
2022-12-23T13:46:00.082Z,80.08
2022-12-23T13:48:39.621Z,80.13
2022-12-23T13:51:15.316Z,80.08
2022-12-23T13:53:55.295Z,80.44
2022-12-23T13:56:34.855Z,80.45
2022-12-23T13:59:03.269Z,80.45
2022-12-23T14:01:37.856Z,80.56
2022-12-23T14:04:34.544Z,80.62
2022-12-23T14:07:05.428Z,80.70
2022-12-23T14:09:37.221Z,80.66
2022-12-23T14:12:18.663Z,80.29
2022-12-23T14:14:59.898Z,80.53
2022-12-23T14:17:39.648Z,80.25
2022-12-23T14:20:27.955Z,80.16
2022-12-23T14:23:18.960Z,80.09
2022-12-23T14:26:04.379Z,80.04
2022-12-23T14:28:59.321Z,79.91
2022-12-23T14:31:33.486Z,80.36
2022-12-23T14:34:07.878Z,80.39
2022-12-23T14:36:38.217Z,80.59
2022-12-23T14:39:31.478Z,80.63
2022-12-23T14:42:06.533Z,80.61
2022-12-23T14:44:50.489Z,80.69
2022-12-23T14:47:40.272Z,80.63
2022-12-23T14:50:41.735Z,80.51
2022-12-23T14:53:27.301Z,80.74
2022-12-23T14:56:32.087Z,80.79
2022-12-23T14:59:14.092Z,80.92
2022-12-23T15:01:45.620Z,81.17
2022-12-23T15:04:20.067Z,80.73
2022-12-23T15:06:50.765Z,80.79
2022-12-23T15:09:26.044Z,80.84
2022-12-23T15:11:55.996Z,80.79
2022-12-23T15:14:34.698Z,81.07
2022-12-23T15:17:16.551Z,80.97
2022-12-23T15:19:46.419Z,81.39
2022-12-23T15:22:22.737Z,81.34
2022-12-23T15:24:55.410Z,81.49
2022-12-23T15:27:29.420Z,81.48
2022-12-23T15:29:59.210Z,81.42
2022-12-23T15:32:29.216Z,81.32
2022-12-23T15:35:05.432Z,81.42
2022-12-23T15:37:35.158Z,81.42
2022-12-23T15:40:12.691Z,81.55
2022-12-23T15:42:48.976Z,81.45
2022-12-23T15:45:32.336Z,81.80
2022-12-23T15:48:00.728Z,82.01
2022-12-23T15:50:30.323Z,81.47
2022-12-23T15:53:04.787Z,82.12
2022-12-23T15:55:37.286Z,82.05
2022-12-23T16:32:01.735Z,83.84
2022-12-23T16:42:46.689Z,84.12
2022-12-23T16:46:38.087Z,84.08
2022-12-23T16:50:47.423Z,84.19
2022-12-23T16:53:47.977Z,84.39
2022-12-23T16:56:53.953Z,84.37
2022-12-23T18:27:09.602Z,84.97
2022-12-23T18:28:35.601Z,85.15
2022-12-23T18:31:04.038Z,85.14
2022-12-23T18:33:32.380Z,85.00
2022-12-23T18:36:00.786Z,84.91
2022-12-23T18:38:40.518Z,84.77
2022-12-23T18:41:18.542Z,84.77
2022-12-23T18:43:51.177Z,84.92
2022-12-23T18:46:23.255Z,84.89
2022-12-23T18:49:06.301Z,84.66
2022-12-23T18:51:48.008Z,84.67
2022-12-23T18:54:24.672Z,84.51
2022-12-23T18:56:55.713Z,84.88
2022-12-23T18:59:30.204Z,85.03
2022-12-23T19:02:08.968Z,85.13
2022-12-23T19:04:50.077Z,85.12
2022-12-23T19:07:43.313Z,84.80
2022-12-23T19:10:37.597Z,85.32
2022-12-23T19:13:11.558Z,85.33
2022-12-23T19:15:52.366Z,85.17
2022-12-23T19:18:33.416Z,85.16
2022-12-23T19:21:42.167Z,85.46
2022-12-23T19:24:25.079Z,85.41
2022-12-23T19:27:24.441Z,85.67
2022-12-23T19:29:57.112Z,85.60
2022-12-23T19:32:35.029Z,85.86
2022-12-23T19:35:12.895Z,85.96
2022-12-23T19:40:00.138Z,85.89
2022-12-23T19:42:17.339Z,86.01
2022-12-23T19:44:58.065Z,85.87
2022-12-23T19:47:28.044Z,86.03
2022-12-23T19:49:59.400Z,86.25
2022-12-23T19:52:57.652Z,85.93
2022-12-23T19:55:30.451Z,86.11
2022-12-23T19:58:06.608Z,86.26
2022-12-23T20:00:55.855Z,86.17
2022-12-23T20:03:34.695Z,86.18
2022-12-23T20:06:28.593Z,86.27
2022-12-23T20:09:19.373Z,86.48
2022-12-23T20:12:28.308Z,86.30
2022-12-23T20:15:39.143Z,86.17
2022-12-23T20:18:14.031Z,86.37
2022-12-23T20:21:12.218Z,86.32
2022-12-23T20:24:44.993Z,86.20
2022-12-23T20:28:03.644Z,86.22
2022-12-23T20:31:26.197Z,86.23
2022-12-23T20:34:25.521Z,86.11
2022-12-23T20:37:58.867Z,86.03
2022-12-23T20:41:03.025Z,86.34
2022-12-23T20:47:19.584Z,85.91
2022-12-23T20:54:31.725Z,85.76
2022-12-23T20:58:27.829Z,85.88
2022-12-23T21:01:35.299Z,85.67
2022-12-23T21:07:44.422Z,86.23
2022-12-23T21:10:54.745Z,86.07
2022-12-23T21:13:54.187Z,86.20
2022-12-23T21:16:56.454Z,86.17
2022-12-23T21:20:07.032Z,86.24
2022-12-23T21:23:06.722Z,86.24
2022-12-23T21:25:35.136Z,86.30
2022-12-23T21:28:23.219Z,86.61
2022-12-23T23:34:20.755Z,87.15
